Terminal Aerodrome Forecast
Issued by NWS Charleston, WV

Home | Current Version | Previous Version | Text Only | Print | Product List | Glossary On
Versions: 1 2 3 4 5 6 7 8 9 10 11 12 13 14 15 16 17 18 19 20 21 22 23 24 25 26 27 28 29 30 31 32 33 34 35
000
FTUS41 KRLX 240500
TAFEKN
TAF
KEKN 240536Z 2406/2506 VRB03KT 5SM BR BKN025
      TEMPO 2406/2410 2SM BR BKN015
     FM241000 00000KT 2SM BR SCT001 BKN015
      TEMPO 2410/2413 1/4SM FG VV001
     FM241300 00000KT 3SM BR SCT015 BKN250
     FM241400 29004KT P6SM SCT150
     FM250000 00000KT P6SM SCT200
     FM250300 00000KT P6SM BKN035
     FM250500 00000KT 6SM BR BKN025=

USA.gov is the U.S. government's official web portal to all federal, state and local government web resources and services.